sensor_id;sensor_type;location;lat;lon;timestamp;pressure;altitude;pressure_sealevel;temperature;humidity
9009;BME280;62813;51.424;6.762;2023-06-26T00:00:04;100920.00;;;25.52;45.85
9009;BME280;62813;51.424;6.762;2023-06-26T00:02:31;100913.09;;;25.32;46.41
9009;BME280;62813;51.424;6.762;2023-06-26T00:05:01;100915.91;;;25.39;46.41
9009;BME280;62813;51.424;6.762;2023-06-26T00:07:31;100917.19;;;25.45;46.16
9009;BME280;62813;51.424;6.762;2023-06-26T00:10:01;100917.63;;;25.28;46.38
9009;BME280;62813;51.424;6.762;2023-06-26T00:12:30;100915.00;;;25.32;46.59
9009;BME280;62813;51.424;6.762;2023-06-26T00:14:57;100912.53;;;25.23;46.83
9009;BME280;62813;51.424;6.762;2023-06-26T00:17:24;100915.78;;;25.32;46.67
9009;BME280;62813;51.424;6.762;2023-06-26T00:19:51;100918.19;;;25.18;47.39
9009;BME280;62813;51.424;6.762;2023-06-26T00:22:18;100918.75;;;25.27;46.94
9009;BME280;62813;51.424;6.762;2023-06-26T00:24:45;100919.53;;;25.27;46.66
9009;BME280;62813;51.424;6.762;2023-06-26T00:27:12;100919.06;;;25.22;46.95
9009;BME280;62813;51.424;6.762;2023-06-26T00:29:39;100916.78;;;25.24;47.22
9009;BME280;62813;51.424;6.762;2023-06-26T00:32:06;100910.88;;;25.18;47.02
9009;BME280;62813;51.424;6.762;2023-06-26T00:34:33;100910.34;;;25.09;47.29
9009;BME280;62813;51.424;6.762;2023-06-26T00:37:00;100910.59;;;25.23;47.13
9009;BME280;62813;51.424;6.762;2023-06-26T00:39:27;100912.09;;;25.21;47.14
9009;BME280;62813;51.424;6.762;2023-06-26T00:41:54;100914.09;;;25.24;47.13
9009;BME280;62813;51.424;6.762;2023-06-26T00:44:21;100910.88;;;25.18;47.15
9009;BME280;62813;51.424;6.762;2023-06-26T00:46:48;100906.13;;;25.12;47.45
9009;BME280;62813;51.424;6.762;2023-06-26T00:49:15;100915.72;;;25.09;47.59
9009;BME280;62813;51.424;6.762;2023-06-26T00:51:42;100907.25;;;25.11;47.35
9009;BME280;62813;51.424;6.762;2023-06-26T00:54:10;100902.25;;;25.09;47.52
9009;BME280;62813;51.424;6.762;2023-06-26T00:56:37;100907.63;;;25.09;47.50
9009;BME280;62813;51.424;6.762;2023-06-26T00:59:03;100907.25;;;25.11;47.48
9009;BME280;62813;51.424;6.762;2023-06-26T01:01:30;100902.16;;;25.06;47.82
9009;BME280;62813;51.424;6.762;2023-06-26T01:03:57;100899.47;;;25.06;48.00
9009;BME280;62813;51.424;6.762;2023-06-26T01:06:25;100894.38;;;24.85;48.34
9009;BME280;62813;51.424;6.762;2023-06-26T01:08:54;100891.16;;;24.95;47.87
9009;BME280;62813;51.424;6.762;2023-06-26T01:11:20;100890.47;;;24.82;48.72
9009;BME280;62813;51.424;6.762;2023-06-26T01:13:47;100889.69;;;24.82;48.38
9009;BME280;62813;51.424;6.762;2023-06-26T01:16:15;100888.63;;;24.86;48.51
9009;BME280;62813;51.424;6.762;2023-06-26T01:18:46;100886.81;;;24.91;48.10
9009;BME280;62813;51.424;6.762;2023-06-26T01:21:15;100882.31;;;24.79;48.35
9009;BME280;62813;51.424;6.762;2023-06-26T01:24:09;100883.38;;;24.74;48.37
9009;BME280;62813;51.424;6.762;2023-06-26T01:26:38;100883.97;;;24.48;49.05
9009;BME280;62813;51.424;6.762;2023-06-26T01:29:07;100885.84;;;24.64;48.88
9009;BME280;62813;51.424;6.762;2023-06-26T01:31:36;100883.94;;;24.64;48.75
9009;BME280;62813;51.424;6.762;2023-06-26T01:34:03;100883.25;;;24.51;49.07
9009;BME280;62813;51.424;6.762;2023-06-26T01:36:30;100880.91;;;24.50;48.82
9009;BME280;62813;51.424;6.762;2023-06-26T01:38:57;100876.63;;;24.65;48.74
9009;BME280;62813;51.424;6.762;2023-06-26T01:41:24;100871.94;;;24.62;48.48
9009;BME280;62813;51.424;6.762;2023-06-26T01:54:37;100884.22;;;24.43;49.20
9009;BME280;62813;51.424;6.762;2023-06-26T01:57:07;100875.34;;;24.24;49.34
9009;BME280;62813;51.424;6.762;2023-06-26T01:59:35;100879.22;;;24.10;50.15
9009;BME280;62813;51.424;6.762;2023-06-26T02:02:07;100879.75;;;24.32;49.60
9009;BME280;62813;51.424;6.762;2023-06-26T02:04:34;100891.97;;;24.45;49.15
9009;BME280;62813;51.424;6.762;2023-06-26T02:07:01;100898.31;;;24.37;49.48
9009;BME280;62813;51.424;6.762;2023-06-26T02:09:27;100891.31;;;24.32;49.45
9009;BME280;62813;51.424;6.762;2023-06-26T02:11:54;100900.69;;;24.23;49.73
9009;BME280;62813;51.424;6.762;2023-06-26T02:14:21;100885.28;;;24.39;49.20
9009;BME280;62813;51.424;6.762;2023-06-26T02:16:47;100889.50;;;24.21;50.15
9009;BME280;62813;51.424;6.762;2023-06-26T02:19:14;100885.56;;;24.34;49.62
9009;BME280;62813;51.424;6.762;2023-06-26T02:21:51;100896.75;;;24.36;49.60
9009;BME280;62813;51.424;6.762;2023-06-26T02:24:17;100903.47;;;24.26;50.20
9009;BME280;62813;51.424;6.762;2023-06-26T02:26:44;100899.44;;;24.20;49.82
9009;BME280;62813;51.424;6.762;2023-06-26T02:29:12;100895.03;;;24.28;49.36
9009;BME280;62813;51.424;6.762;2023-06-26T02:31:39;100904.41;;;24.18;49.62
9009;BME280;62813;51.424;6.762;2023-06-26T02:34:06;100902.63;;;24.22;49.60
9009;BME280;62813;51.424;6.762;2023-06-26T02:36:33;100912.13;;;24.20;49.05
9009;BME280;62813;51.424;6.762;2023-06-26T02:39:00;100904.13;;;24.07;49.72
9009;BME280;62813;51.424;6.762;2023-06-26T02:41:26;100904.53;;;24.22;49.35
9009;BME280;62813;51.424;6.762;2023-06-26T02:43:53;100911.19;;;24.28;49.11
9009;BME280;62813;51.424;6.762;2023-06-26T02:46:20;100917.72;;;24.27;49.46
9009;BME280;62813;51.424;6.762;2023-06-26T02:48:46;100914.81;;;24.20;49.66
9009;BME280;62813;51.424;6.762;2023-06-26T02:51:13;100919.38;;;24.31;49.05
9009;BME280;62813;51.424;6.762;2023-06-26T02:53:40;100923.88;;;24.11;49.44
9009;BME280;62813;51.424;6.762;2023-06-26T02:56:07;100928.81;;;24.09;49.92
9009;BME280;62813;51.424;6.762;2023-06-26T02:58:33;100931.50;;;24.09;49.60
9009;BME280;62813;51.424;6.762;2023-06-26T03:01:00;100926.28;;;24.17;49.46
9009;BME280;62813;51.424;6.762;2023-06-26T03:03:27;100944.44;;;24.04;50.14
9009;BME280;62813;51.424;6.762;2023-06-26T03:05:54;100937.44;;;24.15;49.73
9009;BME280;62813;51.424;6.762;2023-06-26T03:08:20;100937.50;;;24.19;50.04
9009;BME280;62813;51.424;6.762;2023-06-26T03:10:47;100943.94;;;24.14;49.57
9009;BME280;62813;51.424;6.762;2023-06-26T03:13:14;100953.44;;;24.24;49.88
9009;BME280;62813;51.424;6.762;2023-06-26T03:15:40;100950.53;;;24.17;49.90
9009;BME280;62813;51.424;6.762;2023-06-26T03:18:07;100946.97;;;24.12;50.11
9009;BME280;62813;51.424;6.762;2023-06-26T03:20:34;100949.31;;;24.14;49.75
9009;BME280;62813;51.424;6.762;2023-06-26T03:23:00;100950.00;;;24.11;50.13
9009;BME280;62813;51.424;6.762;2023-06-26T03:25:27;100954.28;;;24.12;50.17
9009;BME280;62813;51.424;6.762;2023-06-26T03:27:54;100959.47;;;24.05;50.85
9009;BME280;62813;51.424;6.762;2023-06-26T03:30:20;100964.25;;;24.11;50.52
9009;BME280;62813;51.424;6.762;2023-06-26T03:32:47;100956.63;;;24.13;50.43
9009;BME280;62813;51.424;6.762;2023-06-26T03:35:14;100960.25;;;24.05;50.72
9009;BME280;62813;51.424;6.762;2023-06-26T03:37:41;100963.75;;;24.06;50.66
9009;BME280;62813;51.424;6.762;2023-06-26T03:40:08;100968.75;;;24.07;50.92
9009;BME280;62813;51.424;6.762;2023-06-26T03:42:35;100968.16;;;23.98;51.02
9009;BME280;62813;51.424;6.762;2023-06-26T03:45:02;100961.88;;;23.94;50.72
9009;BME280;62813;51.424;6.762;2023-06-26T03:47:28;100968.13;;;23.83;50.82
9009;BME280;62813;51.424;6.762;2023-06-26T03:49:55;100970.06;;;23.98;50.38
9009;BME280;62813;51.424;6.762;2023-06-26T03:52:24;100969.69;;;23.99;50.04
9009;BME280;62813;51.424;6.762;2023-06-26T03:54:51;100979.63;;;23.95;49.71
9009;BME280;62813;51.424;6.762;2023-06-26T03:57:17;100973.59;;;23.86;50.25
9009;BME280;62813;51.424;6.762;2023-06-26T03:59:44;100978.88;;;23.83;50.27
9009;BME280;62813;51.424;6.762;2023-06-26T04:02:10;100982.13;;;23.88;49.99
9009;BME280;62813;51.424;6.762;2023-06-26T04:04:39;101006.41;;;23.76;50.10
9009;BME280;62813;51.424;6.762;2023-06-26T04:07:05;100983.25;;;23.87;49.55
9009;BME280;62813;51.424;6.762;2023-06-26T04:09:32;100988.59;;;23.71;50.14
9009;BME280;62813;51.424;6.762;2023-06-26T04:11:59;100996.34;;;23.73;49.65
9009;BME280;62813;51.424;6.762;2023-06-26T04:14:26;100993.13;;;23.83;49.58
9009;BME280;62813;51.424;6.762;2023-06-26T04:16:53;101015.03;;;23.82;49.76
9009;BME280;62813;51.424;6.762;2023-06-26T04:19:19;100998.78;;;23.94;49.56
9009;BME280;62813;51.424;6.762;2023-06-26T04:21:46;100997.34;;;23.96;49.80
9009;BME280;62813;51.424;6.762;2023-06-26T04:24:13;101005.06;;;23.98;49.57
9009;BME280;62813;51.424;6.762;2023-06-26T04:26:41;101004.97;;;23.94;49.40
9009;BME280;62813;51.424;6.762;2023-06-26T04:29:07;101006.00;;;23.90;50.10
9009;BME280;62813;51.424;6.762;2023-06-26T04:31:34;101010.34;;;23.94;49.87
9009;BME280;62813;51.424;6.762;2023-06-26T04:34:01;101011.13;;;23.95;49.99
9009;BME280;62813;51.424;6.762;2023-06-26T04:36:27;101001.78;;;24.04;50.15
9009;BME280;62813;51.424;6.762;2023-06-26T04:38:55;101003.50;;;23.97;50.53
9009;BME280;62813;51.424;6.762;2023-06-26T04:41:22;101010.16;;;23.87;51.11
9009;BME280;62813;51.424;6.762;2023-06-26T04:43:49;101009.16;;;24.07;50.85
9009;BME280;62813;51.424;6.762;2023-06-26T04:46:16;101010.88;;;24.00;51.65
9009;BME280;62813;51.424;6.762;2023-06-26T04:48:43;101011.09;;;24.07;50.91
9009;BME280;62813;51.424;6.762;2023-06-26T04:51:11;101005.09;;;24.13;51.13
9009;BME280;62813;51.424;6.762;2023-06-26T04:53:38;101012.91;;;24.19;51.28
9009;BME280;62813;51.424;6.762;2023-06-26T04:56:04;101012.91;;;24.19;51.11
9009;BME280;62813;51.424;6.762;2023-06-26T04:58:32;101005.75;;;24.23;51.66
9009;BME280;62813;51.424;6.762;2023-06-26T05:00:58;101013.38;;;24.36;51.48
9009;BME280;62813;51.424;6.762;2023-06-26T05:03:25;101020.06;;;24.27;51.79
9009;BME280;62813;51.424;6.762;2023-06-26T05:05:52;101029.88;;;24.35;51.46
9009;BME280;62813;51.424;6.762;2023-06-26T05:08:24;101034.94;;;24.36;51.80
9009;BME280;62813;51.424;6.762;2023-06-26T05:10:52;101027.03;;;24.43;51.20
9009;BME280;62813;51.424;6.762;2023-06-26T05:13:25;101029.03;;;24.31;51.65
9009;BME280;62813;51.424;6.762;2023-06-26T05:15:53;101029.78;;;24.16;51.43
9009;BME280;62813;51.424;6.762;2023-06-26T05:18:19;101042.69;;;24.10;51.47
9009;BME280;62813;51.424;6.762;2023-06-26T05:20:46;101051.19;;;23.96;51.81
9009;BME280;62813;51.424;6.762;2023-06-26T05:23:15;101058.41;;;24.08;51.66
9009;BME280;62813;51.424;6.762;2023-06-26T05:25:42;101046.47;;;23.93;51.02
9009;BME280;62813;51.424;6.762;2023-06-26T05:28:09;101045.66;;;23.77;52.19
9009;BME280;62813;51.424;6.762;2023-06-26T05:30:38;101053.00;;;24.08;51.50
9009;BME280;62813;51.424;6.762;2023-06-26T05:33:06;101056.16;;;24.10;51.02
9009;BME280;62813;51.424;6.762;2023-06-26T05:35:36;101063.22;;;24.14;51.18
9009;BME280;62813;51.424;6.762;2023-06-26T05:38:02;101060.22;;;24.04;51.04
9009;BME280;62813;51.424;6.762;2023-06-26T05:40:29;101066.44;;;23.92;50.95
9009;BME280;62813;51.424;6.762;2023-06-26T05:42:56;101064.50;;;24.05;51.42
9009;BME280;62813;51.424;6.762;2023-06-26T05:45:23;101065.53;;;24.16;51.07
9009;BME280;62813;51.424;6.762;2023-06-26T05:47:50;101064.41;;;24.17;50.49
9009;BME280;62813;51.424;6.762;2023-06-26T05:50:17;101069.47;;;24.19;50.49
9009;BME280;62813;51.424;6.762;2023-06-26T05:52:44;101064.53;;;24.21;50.50
9009;BME280;62813;51.424;6.762;2023-06-26T05:55:12;101067.72;;;24.10;50.97
9009;BME280;62813;51.424;6.762;2023-06-26T05:57:40;101083.50;;;23.96;51.49
9009;BME280;62813;51.424;6.762;2023-06-26T06:00:07;101081.75;;;23.76;51.48
9009;BME280;62813;51.424;6.762;2023-06-26T06:02:37;101076.81;;;23.78;51.99
9009;BME280;62813;51.424;6.762;2023-06-26T06:05:05;101069.84;;;23.89;51.73
9009;BME280;62813;51.424;6.762;2023-06-26T06:07:35;101076.38;;;23.76;51.61
9009;BME280;62813;51.424;6.762;2023-06-26T06:10:03;101081.56;;;23.97;51.98
9009;BME280;62813;51.424;6.762;2023-06-26T06:12:30;101080.47;;;23.98;52.01
9009;BME280;62813;51.424;6.762;2023-06-26T06:14:57;101079.31;;;23.99;52.41
9009;BME280;62813;51.424;6.762;2023-06-26T06:17:24;101091.94;;;23.83;52.31
9009;BME280;62813;51.424;6.762;2023-06-26T06:19:50;101101.72;;;23.75;52.51
9009;BME280;62813;51.424;6.762;2023-06-26T06:22:17;101106.16;;;23.55;53.65
9009;BME280;62813;51.424;6.762;2023-06-26T06:24:44;101117.91;;;23.63;52.80
9009;BME280;62813;51.424;6.762;2023-06-26T06:27:10;101123.16;;;23.71;53.29
9009;BME280;62813;51.424;6.762;2023-06-26T06:29:37;101114.84;;;23.76;53.24
9009;BME280;62813;51.424;6.762;2023-06-26T06:32:04;101109.97;;;23.82;52.60
9009;BME280;62813;51.424;6.762;2023-06-26T06:34:31;101118.97;;;23.74;52.97
9009;BME280;62813;51.424;6.762;2023-06-26T06:36:58;101120.34;;;23.80;53.86
9009;BME280;62813;51.424;6.762;2023-06-26T06:39:24;101118.69;;;24.03;52.77
9009;BME280;62813;51.424;6.762;2023-06-26T06:41:51;101135.44;;;23.97;53.31
9009;BME280;62813;51.424;6.762;2023-06-26T06:44:18;101129.28;;;24.24;52.82
9009;BME280;62813;51.424;6.762;2023-06-26T06:46:44;101132.44;;;24.14;52.87
9009;BME280;62813;51.424;6.762;2023-06-26T06:49:11;101147.19;;;24.04;53.28
9009;BME280;62813;51.424;6.762;2023-06-26T06:51:38;101146.66;;;23.87;53.05
9009;BME280;62813;51.424;6.762;2023-06-26T06:54:04;101143.06;;;23.95;52.92
9009;BME280;62813;51.424;6.762;2023-06-26T06:56:31;101150.81;;;23.84;53.67
9009;BME280;62813;51.424;6.762;2023-06-26T06:58:58;101149.53;;;24.06;52.66
9009;BME280;62813;51.424;6.762;2023-06-26T07:01:25;101149.34;;;23.87;53.39
9009;BME280;62813;51.424;6.762;2023-06-26T07:03:51;101163.41;;;23.80;54.09
9009;BME280;62813;51.424;6.762;2023-06-26T07:06:18;101173.72;;;23.78;53.91
9009;BME280;62813;51.424;6.762;2023-06-26T07:08:45;101163.75;;;23.66;54.27
9009;BME280;62813;51.424;6.762;2023-06-26T07:11:12;101165.22;;;23.64;54.00
9009;BME280;62813;51.424;6.762;2023-06-26T07:13:38;101159.72;;;23.60;54.40
9009;BME280;62813;51.424;6.762;2023-06-26T07:16:05;101164.41;;;23.75;54.67
9009;BME280;62813;51.424;6.762;2023-06-26T07:18:32;101157.38;;;23.99;53.65
9009;BME280;62813;51.424;6.762;2023-06-26T07:20:58;101159.50;;;24.05;53.49
9009;BME280;62813;51.424;6.762;2023-06-26T07:23:25;101163.13;;;23.97;54.09
9009;BME280;62813;51.424;6.762;2023-06-26T07:25:52;101163.56;;;23.99;53.87
9009;BME280;62813;51.424;6.762;2023-06-26T07:28:18;101148.19;;;24.00;54.11
9009;BME280;62813;51.424;6.762;2023-06-26T07:30:45;101156.72;;;24.02;54.64
9009;BME280;62813;51.424;6.762;2023-06-26T07:33:12;101148.94;;;24.12;54.01
9009;BME280;62813;51.424;6.762;2023-06-26T07:35:39;101161.28;;;24.13;53.07
9009;BME280;62813;51.424;6.762;2023-06-26T07:38:06;101167.59;;;24.05;53.71
9009;BME280;62813;51.424;6.762;2023-06-26T07:40:33;101162.75;;;23.99;53.79
9009;BME280;62813;51.424;6.762;2023-06-26T07:42:59;101173.59;;;23.87;54.76
9009;BME280;62813;51.424;6.762;2023-06-26T07:45:26;101172.28;;;24.08;53.87
9009;BME280;62813;51.424;6.762;2023-06-26T07:47:53;101177.81;;;24.00;54.62
9009;BME280;62813;51.424;6.762;2023-06-26T07:50:20;101177.31;;;24.10;54.44
9009;BME280;62813;51.424;6.762;2023-06-26T07:52:49;101179.97;;;24.34;53.62
9009;BME280;62813;51.424;6.762;2023-06-26T07:55:16;101172.69;;;24.50;52.91
9009;BME280;62813;51.424;6.762;2023-06-26T07:57:43;101186.69;;;24.40;52.84
9009;BME280;62813;51.424;6.762;2023-06-26T08:00:10;101192.91;;;24.29;53.27
9009;BME280;62813;51.424;6.762;2023-06-26T08:02:37;101184.47;;;24.30;52.96
9009;BME280;62813;51.424;6.762;2023-06-26T08:05:06;101197.09;;;24.42;52.88
9009;BME280;62813;51.424;6.762;2023-06-26T08:07:33;101193.44;;;24.34;52.76
9009;BME280;62813;51.424;6.762;2023-06-26T08:10:00;101203.41;;;24.34;53.21
9009;BME280;62813;51.424;6.762;2023-06-26T08:12:26;101206.38;;;24.29;52.42
9009;BME280;62813;51.424;6.762;2023-06-26T08:14:53;101213.19;;;24.38;52.16
9009;BME280;62813;51.424;6.762;2023-06-26T08:17:20;101205.19;;;24.42;51.16
9009;BME280;62813;51.424;6.762;2023-06-26T08:19:47;101210.19;;;24.28;51.26
9009;BME280;62813;51.424;6.762;2023-06-26T08:22:14;101213.00;;;24.19;52.43
9009;BME280;62813;51.424;6.762;2023-06-26T08:24:40;101216.16;;;24.21;52.00
9009;BME280;62813;51.424;6.762;2023-06-26T08:27:07;101221.06;;;24.19;51.48
9009;BME280;62813;51.424;6.762;2023-06-26T08:29:34;101219.41;;;24.14;52.23
9009;BME280;62813;51.424;6.762;2023-06-26T08:32:01;101218.38;;;24.19;52.38
9009;BME280;62813;51.424;6.762;2023-06-26T08:34:28;101230.59;;;24.17;52.70
9009;BME280;62813;51.424;6.762;2023-06-26T08:36:55;101230.50;;;24.13;52.31
9009;BME280;62813;51.424;6.762;2023-06-26T08:39:22;101231.31;;;24.13;52.62
9009;BME280;62813;51.424;6.762;2023-06-26T08:41:49;101233.56;;;24.24;52.30
9009;BME280;62813;51.424;6.762;2023-06-26T08:44:16;101236.78;;;24.29;51.70
9009;BME280;62813;51.424;6.762;2023-06-26T08:46:43;101226.22;;;24.36;52.32
9009;BME280;62813;51.424;6.762;2023-06-26T08:49:28;101242.31;;;24.21;53.34
9009;BME280;62813;51.424;6.762;2023-06-26T08:52:02;101246.69;;;24.13;52.35
9009;BME280;62813;51.424;6.762;2023-06-26T08:54:34;101257.09;;;24.27;51.61
9009;BME280;62813;51.424;6.762;2023-06-26T08:57:05;101252.03;;;24.37;51.34
9009;BME280;62813;51.424;6.762;2023-06-26T08:59:33;101250.44;;;24.36;51.42
9009;BME280;62813;51.424;6.762;2023-06-26T09:02:01;101250.13;;;24.26;51.18
9009;BME280;62813;51.424;6.762;2023-06-26T09:04:30;101258.88;;;24.35;51.23
9009;BME280;62813;51.424;6.762;2023-06-26T09:06:57;101260.41;;;24.48;50.75
9009;BME280;62813;51.424;6.762;2023-06-26T09:09:23;101259.03;;;24.54;51.09
9009;BME280;62813;51.424;6.762;2023-06-26T09:11:50;101253.50;;;24.63;49.92
9009;BME280;62813;51.424;6.762;2023-06-26T09:14:17;101249.72;;;24.24;49.67
9009;BME280;62813;51.424;6.762;2023-06-26T09:16:45;101241.09;;;24.46;50.19
9009;BME280;62813;51.424;6.762;2023-06-26T09:19:12;101232.34;;;24.49;50.46
9009;BME280;62813;51.424;6.762;2023-06-26T09:21:40;101240.47;;;24.65;50.01
9009;BME280;62813;51.424;6.762;2023-06-26T09:24:08;101248.25;;;24.82;49.58
9009;BME280;62813;51.424;6.762;2023-06-26T09:26:36;101242.88;;;24.82;50.00
9009;BME280;62813;51.424;6.762;2023-06-26T09:29:07;101252.53;;;24.55;48.60
9009;BME280;62813;51.424;6.762;2023-06-26T09:31:37;101261.75;;;24.42;49.55
9009;BME280;62813;51.424;6.762;2023-06-26T09:34:08;101250.91;;;24.26;48.95
9009;BME280;62813;51.424;6.762;2023-06-26T09:36:35;101262.25;;;24.32;49.18
9009;BME280;62813;51.424;6.762;2023-06-26T09:39:08;101260.34;;;24.60;49.15
9009;BME280;62813;51.424;6.762;2023-06-26T09:41:42;101254.13;;;24.72;48.68
9009;BME280;62813;51.424;6.762;2023-06-26T09:44:11;101248.22;;;24.66;47.79
9009;BME280;62813;51.424;6.762;2023-06-26T09:46:39;101251.69;;;24.67;48.69
9009;BME280;62813;51.424;6.762;2023-06-26T09:49:08;101253.06;;;24.61;48.82
9009;BME280;62813;51.424;6.762;2023-06-26T09:51:36;101260.75;;;24.74;47.56
9009;BME280;62813;51.424;6.762;2023-06-26T09:54:04;101255.78;;;24.76;48.06
9009;BME280;62813;51.424;6.762;2023-06-26T09:56:32;101258.84;;;24.75;47.78
9009;BME280;62813;51.424;6.762;2023-06-26T09:59:01;101262.75;;;24.77;48.52
9009;BME280;62813;51.424;6.762;2023-06-26T10:01:28;101266.41;;;24.85;47.87
9009;BME280;62813;51.424;6.762;2023-06-26T10:03:57;101267.38;;;25.05;48.06
9009;BME280;62813;51.424;6.762;2023-06-26T10:06:28;101271.53;;;25.18;46.87
9009;BME280;62813;51.424;6.762;2023-06-26T10:08:58;101260.06;;;25.21;46.26
9009;BME280;62813;51.424;6.762;2023-06-26T10:11:32;101259.56;;;25.31;45.29
9009;BME280;62813;51.424;6.762;2023-06-26T10:14:03;101254.69;;;25.37;45.61
9009;BME280;62813;51.424;6.762;2023-06-26T10:16:44;101255.63;;;25.44;44.86
9009;BME280;62813;51.424;6.762;2023-06-26T10:19:11;101264.44;;;25.41;44.31
9009;BME280;62813;51.424;6.762;2023-06-26T10:21:41;101267.81;;;25.54;42.77
9009;BME280;62813;51.424;6.762;2023-06-26T10:24:10;101273.22;;;25.54;44.47
9009;BME280;62813;51.424;6.762;2023-06-26T10:26:42;101278.78;;;25.45;43.94
9009;BME280;62813;51.424;6.762;2023-06-26T10:29:11;101262.19;;;25.43;44.53
9009;BME280;62813;51.424;6.762;2023-06-26T10:31:43;101275.50;;;25.52;44.80
9009;BME280;62813;51.424;6.762;2023-06-26T10:34:12;101275.69;;;25.59;44.82
9009;BME280;62813;51.424;6.762;2023-06-26T10:36:39;101275.22;;;25.57;44.41
9009;BME280;62813;51.424;6.762;2023-06-26T10:39:07;101280.97;;;25.08;44.13
9009;BME280;62813;51.424;6.762;2023-06-26T10:41:41;101286.28;;;24.93;44.60
9009;BME280;62813;51.424;6.762;2023-06-26T10:44:40;101276.88;;;25.14;42.79
9009;BME280;62813;51.424;6.762;2023-06-26T10:47:08;101282.00;;;25.35;42.32
9009;BME280;62813;51.424;6.762;2023-06-26T10:49:35;101281.59;;;25.49;42.15
9009;BME280;62813;51.424;6.762;2023-06-26T10:52:03;101297.00;;;25.48;41.83
9009;BME280;62813;51.424;6.762;2023-06-26T10:54:31;101300.31;;;25.26;41.57
9009;BME280;62813;51.424;6.762;2023-06-26T10:56:58;101309.41;;;25.06;41.91
9009;BME280;62813;51.424;6.762;2023-06-26T10:59:27;101314.00;;;25.05;41.89
9009;BME280;62813;51.424;6.762;2023-06-26T11:01:56;101311.25;;;25.17;42.75
9009;BME280;62813;51.424;6.762;2023-06-26T11:10:23;101322.97;;;25.69;42.16
9009;BME280;62813;51.424;6.762;2023-06-26T11:12:53;101324.78;;;25.49;39.91
9009;BME280;62813;51.424;6.762;2023-06-26T11:15:21;101322.78;;;25.61;39.46
9009;BME280;62813;51.424;6.762;2023-06-26T11:17:50;101319.31;;;25.77;37.63
9009;BME280;62813;51.424;6.762;2023-06-26T11:20:17;101314.78;;;25.65;38.45
9009;BME280;62813;51.424;6.762;2023-06-26T11:22:44;101316.63;;;25.77;39.87
9009;BME280;62813;51.424;6.762;2023-06-26T11:25:11;101309.72;;;25.79;39.39
9009;BME280;62813;51.424;6.762;2023-06-26T11:27:39;101341.34;;;25.19;39.39
9009;BME280;62813;51.424;6.762;2023-06-26T11:30:07;101330.72;;;25.26;39.42
9009;BME280;62813;51.424;6.762;2023-06-26T11:32:37;101335.59;;;25.21;39.57
9009;BME280;62813;51.424;6.762;2023-06-26T11:35:04;101342.69;;;25.25;37.47
9009;BME280;62813;51.424;6.762;2023-06-26T11:37:32;101327.53;;;25.37;37.81
9009;BME280;62813;51.424;6.762;2023-06-26T11:39:59;101335.06;;;25.43;37.58
9009;BME280;62813;51.424;6.762;2023-06-26T11:42:26;101347.44;;;25.16;38.21
9009;BME280;62813;51.424;6.762;2023-06-26T11:44:54;101347.03;;;25.02;38.74
9009;BME280;62813;51.424;6.762;2023-06-26T11:47:21;101342.47;;;24.91;37.49
9009;BME280;62813;51.424;6.762;2023-06-26T11:49:49;101343.59;;;24.89;35.76
9009;BME280;62813;51.424;6.762;2023-06-26T11:52:16;101350.00;;;24.97;37.87
9009;BME280;62813;51.424;6.762;2023-06-26T11:54:43;101351.25;;;24.75;38.51
9009;BME280;62813;51.424;6.762;2023-06-26T11:57:14;101367.75;;;24.98;38.41
9009;BME280;62813;51.424;6.762;2023-06-26T11:59:41;101371.56;;;24.97;38.90
9009;BME280;62813;51.424;6.762;2023-06-26T12:02:10;101358.09;;;24.97;38.60
9009;BME280;62813;51.424;6.762;2023-06-26T12:04:38;101355.66;;;24.92;36.00
9009;BME280;62813;51.424;6.762;2023-06-26T12:07:10;101362.16;;;24.91;36.21
9009;BME280;62813;51.424;6.762;2023-06-26T12:09:41;101362.94;;;24.92;34.14
9009;BME280;62813;51.424;6.762;2023-06-26T12:12:09;101368.13;;;24.72;32.40
9009;BME280;62813;51.424;6.762;2023-06-26T12:14:37;101366.44;;;24.92;32.35
9009;BME280;62813;51.424;6.762;2023-06-26T12:17:10;101372.81;;;25.00;32.73
9009;BME280;62813;51.424;6.762;2023-06-26T12:19:44;101367.28;;;24.56;32.83
9009;BME280;62813;51.424;6.762;2023-06-26T12:22:11;101374.94;;;24.94;33.34
9009;BME280;62813;51.424;6.762;2023-06-26T12:24:39;101373.16;;;25.26;32.74
9009;BME280;62813;51.424;6.762;2023-06-26T12:27:10;101393.22;;;25.29;34.71
9009;BME280;62813;51.424;6.762;2023-06-26T12:29:40;101392.59;;;25.19;34.78
9009;BME280;62813;51.424;6.762;2023-06-26T12:32:10;101395.16;;;25.00;33.85
9009;BME280;62813;51.424;6.762;2023-06-26T12:34:38;101392.41;;;25.12;34.49
9009;BME280;62813;51.424;6.762;2023-06-26T12:37:11;101413.31;;;25.15;34.50
9009;BME280;62813;51.424;6.762;2023-06-26T12:42:17;101405.38;;;25.07;34.17
9009;BME280;62813;51.424;6.762;2023-06-26T12:44:44;101400.69;;;24.92;33.85
9009;BME280;62813;51.424;6.762;2023-06-26T12:47:11;101402.53;;;24.63;32.88
9009;BME280;62813;51.424;6.762;2023-06-26T12:49:41;101410.84;;;24.46;33.00
9009;BME280;62813;51.424;6.762;2023-06-26T12:52:13;101403.63;;;24.74;33.28
9009;BME280;62813;51.424;6.762;2023-06-26T12:54:41;101411.03;;;24.77;32.82
9009;BME280;62813;51.424;6.762;2023-06-26T12:57:09;101406.50;;;24.94;34.11
9009;BME280;62813;51.424;6.762;2023-06-26T12:59:37;101405.63;;;24.77;33.02
9009;BME280;62813;51.424;6.762;2023-06-26T13:02:04;101397.47;;;24.74;32.57
9009;BME280;62813;51.424;6.762;2023-06-26T13:04:32;101401.19;;;24.45;32.76
9009;BME280;62813;51.424;6.762;2023-06-26T13:06:59;101417.91;;;24.75;33.49
9009;BME280;62813;51.424;6.762;2023-06-26T13:09:26;101408.97;;;24.86;33.17
9009;BME280;62813;51.424;6.762;2023-06-26T13:11:54;101421.00;;;24.89;33.19
9009;BME280;62813;51.424;6.762;2023-06-26T13:14:21;101418.25;;;24.73;32.03
9009;BME280;62813;51.424;6.762;2023-06-26T13:16:48;101412.28;;;24.92;32.47
9009;BME280;62813;51.424;6.762;2023-06-26T13:19:15;101407.63;;;25.05;33.96
9009;BME280;62813;51.424;6.762;2023-06-26T13:21:42;101408.75;;;25.04;32.62